Time;durP1;ratioP1;P1;durP2;ratioP2;P2;SDS_P1;SDS_P2;PMS_P1;PMS_P2;Temp;Humidity;BMP_temperature;BMP_pressure;BME280_temperature;BME280_humidity;BME280_pressure;Samples;Min_cycle;Max_cycle;Signal;HPM_P1;HPM_P2
2023/08/21 00:00:27;;;;;;;13.00;11.70;;;;;;;20.92;100.00;97155.19;109922;1277;139516;-91
2023/08/21 00:03:13;;;;;;;13.70;12.30;;;;;;;20.92;100.00;97156.13;110070;1274;22875;-92
2023/08/21 00:05:40;;;;;;;12.60;11.40;;;;;;;20.90;100.00;97153.02;110109;1274;22506;-91
2023/08/21 00:08:06;;;;;;;12.30;11.20;;;;;;;20.90;100.00;97153.88;109901;1275;138742;-92
2023/08/21 00:10:32;;;;;;;12.20;11.00;;;;;;;20.89;100.00;97155.60;110026;1279;22352;-91
2023/08/21 00:12:59;;;;;;;13.20;12.00;;;;;;;20.89;100.00;97156.38;109902;1280;139017;-92
2023/08/21 00:15:25;;;;;;;13.20;12.10;;;;;;;20.88;100.00;97155.25;110025;1280;22416;-92
2023/08/21 00:17:51;;;;;;;12.60;11.40;;;;;;;20.87;100.00;97154.06;110015;1279;23290;-92
2023/08/21 00:20:18;;;;;;;13.10;11.90;;;;;;;20.87;100.00;97151.16;110005;1280;138924;-92
2023/08/21 00:22:44;;;;;;;13.00;11.90;;;;;;;20.87;100.00;97149.10;109997;1280;22391;-92
2023/08/21 00:25:11;;;;;;;13.60;12.30;;;;;;;20.88;100.00;97150.06;109928;1276;138698;-92
2023/08/21 00:27:37;;;;;;;13.60;12.30;;;;;;;20.89;100.00;97144.64;109992;1277;22653;-92
2023/08/21 00:30:04;;;;;;;13.90;12.60;;;;;;;20.89;100.00;97145.98;110081;1273;22238;-91
2023/08/21 00:32:31;;;;;;;13.10;12.00;;;;;;;20.89;100.00;97142.69;110017;1280;22167;-91
2023/08/21 00:34:57;;;;;;;13.70;12.40;;;;;;;20.88;100.00;97140.67;109998;1279;22266;-92
2023/08/21 00:37:23;;;;;;;13.10;11.90;;;;;;;20.87;100.00;97139.38;109962;1273;138518;-91
2023/08/21 00:39:49;;;;;;;12.80;11.50;;;;;;;20.86;100.00;97135.66;110085;1273;22500;-91
2023/08/21 00:42:15;;;;;;;12.50;11.30;;;;;;;20.84;100.00;97127.05;109920;1274;138738;-92
2023/08/21 00:44:42;;;;;;;12.10;11.00;;;;;;;20.82;100.00;97122.67;109971;1279;22340;-91
2023/08/21 00:47:08;;;;;;;12.20;11.10;;;;;;;20.82;100.00;97116.79;109976;1277;22200;-92
2023/08/21 00:49:34;;;;;;;11.90;10.80;;;;;;;20.82;100.00;97115.56;109867;1279;139077;-92
2023/08/21 00:52:01;;;;;;;11.70;10.60;;;;;;;20.82;100.00;97115.00;110017;1280;22334;-91
2023/08/21 00:54:27;;;;;;;11.80;10.70;;;;;;;20.80;100.00;97116.27;109861;1281;138895;-92
2023/08/21 00:56:54;;;;;;;12.30;11.10;;;;;;;20.78;100.00;97116.76;109973;1274;23020;-91
2023/08/21 00:59:21;;;;;;;11.90;10.70;;;;;;;20.78;100.00;97120.39;109999;1273;22367;-92
2023/08/21 01:01:48;;;;;;;12.00;10.90;;;;;;;20.77;100.00;97118.89;109904;1281;139296;-91
2023/08/21 01:04:14;;;;;;;11.60;10.70;;;;;;;20.77;100.00;97119.80;110013;1275;22311;-92
2023/08/21 01:06:41;;;;;;;12.00;11.00;;;;;;;20.78;100.00;97122.13;109846;1276;139139;-92
2023/08/21 01:09:11;;;;;;;11.40;10.30;;;;;;;20.81;100.00;97125.27;109993;1281;22351;-91
2023/08/21 01:11:46;;;;;;;11.70;10.70;;;;;;;20.82;100.00;97128.84;110110;1278;22333;-92
2023/08/21 01:14:33;;;;;;;11.80;10.70;;;;;;;20.79;100.00;97125.28;109891;1276;138628;-92
2023/08/21 01:17:00;;;;;;;11.60;10.50;;;;;;;20.76;100.00;97124.33;109992;1276;22223;-92
2023/08/21 01:19:32;;;;;;;11.50;10.50;;;;;;;20.75;100.00;97121.91;109850;1276;139462;-92
2023/08/21 01:21:59;;;;;;;13.10;11.80;;;;;;;20.74;100.00;97120.63;110014;1280;23230;-93
2023/08/21 01:24:25;;;;;;;12.50;11.30;;;;;;;20.73;100.00;97118.65;109896;1279;137915;-92
2023/08/21 01:26:51;;;;;;;12.00;11.00;;;;;;;20.72;100.00;97115.82;110091;1271;22896;-92
2023/08/21 01:29:17;;;;;;;12.40;11.30;;;;;;;20.70;100.00;97113.94;110009;1281;22182;-91
2023/08/21 01:31:50;;;;;;;12.40;11.30;;;;;;;20.70;100.00;97113.52;109983;1279;139350;-92
2023/08/21 01:34:19;;;;;;;12.60;11.40;;;;;;;20.68;100.00;97112.06;110030;1279;22184;-91
2023/08/21 01:36:45;;;;;;;12.60;11.40;;;;;;;20.69;100.00;97107.67;109873;1273;139233;-92
2023/08/21 01:39:11;;;;;;;12.90;11.80;;;;;;;20.69;100.00;97114.02;110015;1281;22205;-91
2023/08/21 01:41:38;;;;;;;12.70;11.60;;;;;;;20.69;100.00;97113.08;110007;1281;22353;-91
2023/08/21 01:44:05;;;;;;;13.50;12.30;;;;;;;20.69;100.00;97110.23;109921;1281;139492;-91
2023/08/21 01:46:31;;;;;;;13.20;11.90;;;;;;;20.71;100.00;97110.67;109956;1280;22189;-91
2023/08/21 01:48:57;;;;;;;13.50;12.30;;;;;;;20.73;100.00;97116.52;109873;1276;138741;-92
2023/08/21 01:51:25;;;;;;;13.20;12.10;;;;;;;20.72;100.00;97124.70;109997;1273;22673;-91
2023/08/21 01:53:51;;;;;;;12.60;11.40;;;;;;;20.72;100.00;97122.85;109984;1276;22498;-92
2023/08/21 01:56:17;;;;;;;13.40;12.10;;;;;;;20.70;100.00;97118.30;109883;1276;138868;-91
2023/08/21 01:58:43;;;;;;;12.20;11.10;;;;;;;20.68;100.00;97118.01;109987;1281;22204;-92
2023/08/21 02:01:10;;;;;;;13.00;11.80;;;;;;;20.65;100.00;97121.15;109873;1277;139074;-92
2023/08/21 02:03:37;;;;;;;13.70;12.40;;;;;;;20.64;100.00;97123.69;109992;1282;23040;-92
2023/08/21 02:06:03;;;;;;;13.70;12.60;;;;;;;20.63;100.00;97118.84;110063;1277;22233;-92
2023/08/21 02:08:35;;;;;;;13.30;12.00;;;;;;;20.63;100.00;97117.49;109892;1276;138366;-91
2023/08/21 02:11:02;;;;;;;13.40;11.90;;;;;;;20.62;100.00;97122.83;110109;1280;22205;-91
2023/08/21 02:13:28;;;;;;;14.00;11.90;;;;;;;20.62;100.00;97124.25;109927;1280;138889;-92
2023/08/21 02:15:55;;;;;;;13.60;12.30;;;;;;;20.62;100.00;97123.23;110024;1276;22830;-92
2023/08/21 02:18:22;;;;;;;13.10;12.10;;;;;;;20.62;100.00;97121.54;109922;1277;138979;-92
2023/08/21 02:20:49;;;;;;;13.70;12.60;;;;;;;20.62;100.00;97123.49;110034;1281;22118;-91
2023/08/21 02:23:15;;;;;;;12.90;11.70;;;;;;;20.61;100.00;97124.11;110088;1281;22645;-92
2023/08/21 02:25:42;;;;;;;13.00;11.90;;;;;;;20.61;100.00;97120.46;109874;1281;139086;-93
2023/08/21 02:28:08;;;;;;;13.80;12.50;;;;;;;20.61;100.00;97123.53;110005;1281;23130;-93
2023/08/21 02:30:34;;;;;;;13.60;12.30;;;;;;;20.61;100.00;97121.83;109903;1280;138731;-92
2023/08/21 02:33:00;;;;;;;12.60;11.50;;;;;;;20.60;100.00;97122.61;110024;1273;22239;-92
2023/08/21 02:35:27;;;;;;;13.00;11.80;;;;;;;20.60;100.00;97122.34;110074;1280;22969;-92
2023/08/21 02:37:53;;;;;;;13.00;11.80;;;;;;;20.59;100.00;97119.06;109898;1273;139342;-92
2023/08/21 02:40:19;;;;;;;12.60;11.30;;;;;;;20.60;100.00;97118.48;110017;1275;22221;-92
2023/08/21 02:42:45;;;;;;;12.90;11.70;;;;;;;20.60;100.00;97114.42;109861;1273;139275;-92
2023/08/21 02:45:11;;;;;;;13.90;11.80;;;;;;;20.59;100.00;97114.55;109974;1281;22228;-91
2023/08/21 02:47:38;;;;;;;13.30;12.10;;;;;;;20.59;100.00;97111.80;109985;1281;23256;-92
2023/08/21 02:50:05;;;;;;;13.40;12.00;;;;;;;20.58;100.00;97107.51;109889;1276;139448;-93
2023/08/21 02:52:33;;;;;;;14.00;12.60;;;;;;;20.57;100.00;97106.95;110023;1281;22350;-92
2023/08/21 02:55:02;;;;;;;13.20;11.90;;;;;;;20.56;100.00;97098.76;109896;1280;138633;-91
2023/08/21 02:57:28;;;;;;;12.10;11.00;;;;;;;20.55;100.00;97094.55;109794;1276;391056;-91
2023/08/21 02:59:54;;;;;;;11.90;10.80;;;;;;;20.56;100.00;97097.31;110012;1277;22528;-91
2023/08/21 03:02:21;;;;;;;10.90;9.90;;;;;;;20.54;100.00;97098.14;110002;1273;138825;-91
2023/08/21 03:04:48;;;;;;;11.20;10.10;;;;;;;20.54;100.00;97094.55;110029;1280;22302;-92
2023/08/21 03:07:14;;;;;;;14.60;10.20;;;;;;;20.52;100.00;97099.20;109879;1277;139135;-92
2023/08/21 03:09:41;;;;;;;14.20;10.50;;;;;;;20.49;100.00;97097.67;110126;1280;22204;-91
2023/08/21 03:12:08;;;;;;;10.90;9.90;;;;;;;20.48;100.00;97097.00;110096;1280;139208;-92
2023/08/21 03:14:35;;;;;;;11.20;10.20;;;;;;;20.46;100.00;97096.12;110025;1274;22352;-92
2023/08/21 03:17:01;;;;;;;9.70;8.90;;;;;;;20.45;100.00;97089.39;110189;1273;22210;-92
2023/08/21 03:19:27;;;;;;;10.60;9.70;;;;;;;20.44;100.00;97091.91;109995;1273;138829;-92
2023/08/21 03:21:53;;;;;;;11.80;10.70;;;;;;;20.44;100.00;97096.13;110096;1274;22440;-92
2023/08/21 03:24:19;;;;;;;11.80;10.80;;;;;;;20.43;100.00;97103.34;110002;1280;138080;-92
2023/08/21 03:26:46;;;;;;;12.60;11.40;;;;;;;20.45;100.00;97099.95;110042;1275;22203;-92
2023/08/21 03:29:12;;;;;;;11.40;10.30;;;;;;;20.47;100.00;97104.87;109993;1276;22935;-92
2023/08/21 03:31:38;;;;;;;11.60;10.40;;;;;;;20.49;100.00;97102.20;110048;1280;138866;-92
2023/08/21 03:34:04;;;;;;;11.20;10.20;;;;;;;20.47;100.00;97097.56;110013;1276;22286;-92
2023/08/21 03:36:31;;;;;;;11.30;10.20;;;;;;;20.45;100.00;97097.27;109921;1272;139733;-92
2023/08/21 03:39:00;;;;;;;10.40;9.50;;;;;;;20.44;100.00;97097.29;110031;1276;22228;-92
2023/08/21 03:41:27;;;;;;;10.90;9.80;;;;;;;20.43;100.00;97098.65;110084;1275;22173;-91
2023/08/21 03:43:58;;;;;;;11.00;9.90;;;;;;;20.42;100.00;97100.89;109988;1280;139619;-92
2023/08/21 03:46:24;;;;;;;12.10;11.00;;;;;;;20.41;100.00;97103.53;110072;1280;22385;-92
2023/08/21 03:48:51;;;;;;;11.60;10.60;;;;;;;20.39;100.00;97098.64;109860;1278;139766;-91
2023/08/21 03:51:17;;;;;;;11.30;10.30;;;;;;;20.38;100.00;97096.61;110007;1280;22360;-92
2023/08/21 03:53:44;;;;;;;11.60;10.60;;;;;;;20.38;100.00;97099.50;110138;1280;22368;-92
2023/08/21 03:56:14;;;;;;;11.90;10.90;;;;;;;20.37;100.00;97100.28;109841;1280;138193;-92
2023/08/21 03:58:41;;;;;;;11.80;10.70;;;;;;;20.37;100.00;97097.00;109974;1277;22101;-91
2023/08/21 04:01:08;;;;;;;13.70;12.00;;;;;;;20.37;100.00;97098.33;109902;1280;139006;-92
2023/08/21 04:03:34;;;;;;;12.70;11.60;;;;;;;20.39;100.00;97095.73;110101;1275;23046;-92
2023/08/21 04:06:01;;;;;;;13.40;12.20;;;;;;;20.40;100.00;97096.55;110050;1280;22230;-92
2023/08/21 04:08:27;;;;;;;14.40;13.00;;;;;;;20.42;100.00;97099.35;109903;1281;138526;-92
2023/08/21 04:10:54;;;;;;;14.90;13.00;;;;;;;20.42;100.00;97095.24;110150;1280;23030;-91
2023/08/21 04:13:21;;;;;;;13.30;11.90;;;;;;;20.43;100.00;97091.09;109980;1275;139593;-91
2023/08/21 04:15:49;;;;;;;13.80;12.50;;;;;;;20.43;100.00;97088.23;110040;1278;22817;-92
2023/08/21 04:18:15;;;;;;;13.20;12.00;;;;;;;20.45;100.00;97091.19;109924;1280;139294;-92
2023/08/21 04:20:41;;;;;;;12.70;11.60;;;;;;;20.46;100.00;97089.58;110068;1277;22248;-92
2023/08/21 04:23:07;;;;;;;13.40;12.00;;;;;;;20.49;100.00;97090.17;110093;1280;22193;-92
2023/08/21 04:25:34;;;;;;;13.00;11.80;;;;;;;20.50;100.00;97090.86;109885;1280;139086;-92
2023/08/21 04:28:00;;;;;;;13.60;12.40;;;;;;;20.52;100.00;97090.27;110051;1280;22239;-92
2023/08/21 04:30:27;;;;;;;13.50;12.20;;;;;;;20.54;100.00;97091.91;109932;1281;138655;-91
2023/08/21 04:32:54;;;;;;;13.80;12.50;;;;;;;20.57;100.00;97086.85;110066;1274;22933;-92
2023/08/21 04:35:21;;;;;;;13.40;12.20;;;;;;;20.60;100.00;97085.22;110165;1273;22521;-92
2023/08/21 04:37:47;;;;;;;12.00;11.00;;;;;;;20.62;100.00;97086.59;109997;1280;138809;-92
2023/08/21 04:40:15;;;;;;;12.50;11.40;;;;;;;20.65;100.00;97092.64;110107;1275;22193;-92
2023/08/21 04:42:41;;;;;;;12.60;11.40;;;;;;;20.69;100.00;97092.35;109880;1276;139248;-92
2023/08/21 04:45:08;;;;;;;13.70;12.40;;;;;;;20.73;100.00;97096.67;109995;1276;22138;-92
2023/08/21 04:47:35;;;;;;;13.60;12.30;;;;;;;20.78;100.00;97095.67;110002;1279;22204;-92
2023/08/21 04:50:02;;;;;;;14.30;12.00;;;;;;;20.84;100.00;97096.77;110032;1275;139284;-91
2023/08/21 04:52:28;;;;;;;13.40;12.00;;;;;;;20.89;100.00;97096.52;110084;1280;22291;-91
2023/08/21 04:54:55;;;;;;;13.40;12.20;;;;;;;20.93;100.00;97100.58;109881;1273;138809;-91
2023/08/21 04:57:21;;;;;;;14.10;12.90;;;;;;;20.98;100.00;97100.46;110033;1280;23400;-92
2023/08/21 04:59:48;;;;;;;13.50;12.30;;;;;;;21.02;100.00;97103.69;110001;1280;23139;-91
2023/08/21 05:02:14;;;;;;;14.20;12.70;;;;;;;21.07;100.00;97102.99;109939;1280;139061;-92
2023/08/21 05:04:41;;;;;;;13.90;12.70;;;;;;;21.12;100.00;97105.05;110070;1275;22214;-92
2023/08/21 05:07:07;;;;;;;15.10;13.60;;;;;;;21.17;100.00;97103.02;109903;1273;138547;-92
2023/08/21 05:09:33;;;;;;;14.30;13.00;;;;;;;21.21;100.00;97102.62;110084;1278;22252;-91
2023/08/21 05:12:00;;;;;;;15.30;13.90;;;;;;;21.24;100.00;97103.19;110079;1273;22370;-91
2023/08/21 05:14:26;;;;;;;13.60;12.50;;;;;;;21.27;100.00;97101.35;109904;1276;138775;-92
2023/08/21 05:16:53;;;;;;;13.80;12.50;;;;;;;21.30;100.00;97102.46;110102;1279;22833;-91
2023/08/21 05:19:28;;;;;;;13.80;12.60;;;;;;;21.33;100.00;97096.79;109999;1280;139156;-92
2023/08/21 05:21:56;;;;;;;14.70;13.20;;;;;;;21.35;100.00;97098.82;110103;1275;22309;-91
2023/08/21 05:24:22;;;;;;;13.90;12.70;;;;;;;21.37;100.00;97098.66;109907;1277;138942;-92
2023/08/21 05:26:50;;;;;;;14.60;13.40;;;;;;;21.39;100.00;97102.14;110163;1275;22222;-92
2023/08/21 05:29:16;;;;;;;14.80;13.50;;;;;;;21.43;100.00;97097.39;110109;1278;22185;-92
2023/08/21 05:31:43;;;;;;;15.60;12.80;;;;;;;21.47;100.00;97102.94;109921;1277;138599;-92
2023/08/21 05:34:10;;;;;;;14.30;13.10;;;;;;;21.50;100.00;97104.02;110052;1277;22541;-92
2023/08/21 05:36:38;;;;;;;17.50;13.00;;;;;;;21.54;100.00;97105.47;109998;1275;139280;-92
2023/08/21 05:39:05;;;;;;;13.60;12.20;;;;;;;21.58;100.00;97102.83;110064;1273;22206;-92
2023/08/21 05:41:32;;;;;;;13.90;12.80;;;;;;;21.61;100.00;97098.08;109987;1280;22197;-90
2023/08/21 05:43:58;;;;;;;14.20;12.90;;;;;;;21.64;100.00;97099.34;109993;1280;138949;-92
2023/08/21 05:46:25;;;;;;;14.30;13.00;;;;;;;21.66;100.00;97097.56;110083;1280;22155;-92
2023/08/21 05:48:52;;;;;;;14.20;12.90;;;;;;;21.69;100.00;97099.58;109976;1280;138966;-92
2023/08/21 05:51:18;;;;;;;13.20;11.90;;;;;;;21.71;100.00;97095.70;110098;1273;22199;-91
2023/08/21 05:53:44;;;;;;;13.30;12.20;;;;;;;21.73;100.00;97094.56;110003;1278;22399;-91
2023/08/21 05:56:10;;;;;;;14.30;13.10;;;;;;;21.74;100.00;97095.95;109874;1280;139304;-92
2023/08/21 05:58:37;;;;;;;14.00;12.70;;;;;;;21.76;100.00;97101.66;110120;1280;22466;-92
2023/08/21 06:01:03;;;;;;;13.90;12.60;;;;;;;21.78;100.00;97099.85;110011;1275;139173;-91
2023/08/21 06:03:29;;;;;;;13.90;12.70;;;;;;;21.81;100.00;97104.09;110109;1280;22217;-92
2023/08/21 06:05:57;;;;;;;15.20;13.90;;;;;;;21.83;100.00;97109.91;110036;1274;22731;-92
2023/08/21 06:08:23;;;;;;;14.90;13.10;;;;;;;21.86;100.00;97113.41;109869;1277;138921;-91
2023/08/21 06:10:52;;;;;;;14.60;13.10;;;;;;;21.93;100.00;97111.61;110048;1273;22222;-92
2023/08/21 06:13:19;;;;;;;14.10;12.70;;;;;;;21.97;100.00;97111.44;109887;1277;138993;-92
2023/08/21 06:15:45;;;;;;;14.80;13.40;;;;;;;22.00;100.00;97113.78;110155;1273;22948;-92
2023/08/21 06:18:11;;;;;;;14.70;13.30;;;;;;;22.03;100.00;97119.21;110019;1280;139353;-92
2023/08/21 06:20:37;;;;;;;12.80;11.70;;;;;;;22.06;100.00;97114.01;110143;1274;22956;-92
2023/08/21 06:23:04;;;;;;;13.70;12.40;;;;;;;22.08;100.00;97113.73;110106;1275;22931;-91
2023/08/21 06:25:30;;;;;;;12.90;11.70;;;;;;;22.11;100.00;97116.91;109842;1277;138738;-92
2023/08/21 06:27:57;;;;;;;13.20;12.00;;;;;;;22.14;100.00;97119.63;109993;1281;22644;-91
2023/08/21 06:30:23;;;;;;;12.60;11.40;;;;;;;22.15;100.00;97120.13;109933;1280;139508;-91
2023/08/21 06:32:49;;;;;;;12.60;11.60;;;;;;;22.16;100.00;97118.39;110115;1274;22446;-92
2023/08/21 06:35:15;;;;;;;12.90;11.80;;;;;;;22.19;100.00;97117.59;110057;1275;22247;-92
2023/08/21 06:37:42;;;;;;;13.80;12.50;;;;;;;22.22;100.00;97121.60;109916;1274;139175;-92
2023/08/21 06:40:08;;;;;;;13.30;12.10;;;;;;;22.25;100.00;97125.04;110032;1280;22216;-92
2023/08/21 06:42:35;;;;;;;13.20;11.70;;;;;;;22.27;100.00;97129.20;109945;1279;138849;-92
2023/08/21 06:45:04;;;;;;;13.90;12.70;;;;;;;22.29;100.00;97133.73;110072;1274;22217;-92
2023/08/21 06:47:30;;;;;;;12.70;11.50;;;;;;;22.29;100.00;97132.61;110013;1278;22342;-92
2023/08/21 06:49:56;;;;;;;13.30;12.20;;;;;;;22.30;100.00;97131.45;109879;1280;139642;-91
2023/08/21 06:52:23;;;;;;;13.60;12.40;;;;;;;22.32;100.00;97134.98;110049;1278;22314;-92
2023/08/21 06:54:49;;;;;;;13.70;12.50;;;;;;;22.35;100.00;97136.35;110000;1273;138999;-92
2023/08/21 06:57:16;;;;;;;13.10;12.00;;;;;;;22.38;100.00;97133.91;110022;1277;22807;-92
2023/08/21 06:59:43;;;;;;;13.40;12.30;;;;;;;22.41;100.00;97130.77;110088;1280;22284;-91
2023/08/21 07:02:10;;;;;;;12.80;11.70;;;;;;;22.44;100.00;97134.17;109920;1274;139380;-92
2023/08/21 07:04:36;;;;;;;12.70;11.60;;;;;;;22.48;100.00;97144.85;110142;1280;22371;-92
2023/08/21 07:07:03;;;;;;;12.50;11.30;;;;;;;22.53;100.00;97145.34;109902;1280;138925;-92
2023/08/21 07:09:29;;;;;;;12.80;11.60;;;;;;;22.58;100.00;97140.08;110032;1280;22219;-92
2023/08/21 07:11:55;;;;;;;13.00;11.30;;;;;;;22.64;100.00;97140.35;109990;1280;22423;-92
2023/08/21 07:14:21;;;;;;;12.10;11.00;;;;;;;22.68;100.00;97143.64;109949;1274;138493;-92
2023/08/21 07:16:47;;;;;;;12.80;11.70;;;;;;;22.71;100.00;97147.35;110047;1281;22284;-92
2023/08/21 07:19:13;;;;;;;12.40;11.30;;;;;;;22.75;100.00;97149.95;109913;1274;139025;-92
2023/08/21 07:21:41;;;;;;;13.30;12.10;;;;;;;22.80;100.00;97148.39;110062;1274;22911;-92
2023/08/21 07:24:07;;;;;;;11.50;10.50;;;;;;;22.85;100.00;97149.30;109946;1273;139118;-92
2023/08/21 07:26:33;;;;;;;12.30;11.10;;;;;;;22.90;100.00;97149.05;109966;1275;22193;-91
2023/08/21 07:29:00;;;;;;;11.40;10.30;;;;;;;22.95;100.00;97154.61;110011;1281;22367;-93
2023/08/21 07:31:26;;;;;;;11.70;10.70;;;;;;;22.99;100.00;97154.46;109830;1276;139268;-92
2023/08/21 07:33:52;;;;;;;11.40;10.40;;;;;;;23.03;100.00;97158.55;109975;1273;22999;-91
2023/08/21 07:36:19;;;;;;;11.30;10.40;;;;;;;23.06;100.00;97157.63;109930;1277;139487;-91
2023/08/21 07:38:45;;;;;;;13.30;11.90;;;;;;;23.09;100.00;97159.58;110056;1275;22308;-92
2023/08/21 07:41:12;;;;;;;12.40;11.40;;;;;;;23.13;100.00;97162.24;110056;1273;22418;-91
2023/08/21 07:43:40;;;;;;;13.00;11.70;;;;;;;23.14;100.00;97166.55;109918;1279;139316;-92
2023/08/21 07:46:09;;;;;;;11.50;10.40;;;;;;;23.14;100.00;97168.98;110026;1273;22370;-91
2023/08/21 07:48:35;;;;;;;12.00;10.90;;;;;;;23.13;100.00;97170.05;109902;1280;138940;-92
2023/08/21 07:51:03;;;;;;;11.40;10.40;;;;;;;23.13;100.00;97171.95;110072;1280;22199;-92
2023/08/21 07:53:31;;;;;;;12.30;11.30;;;;;;;23.13;100.00;97173.86;110021;1280;22208;-91
2023/08/21 07:55:58;;;;;;;13.30;12.20;;;;;;;23.17;100.00;97179.48;110060;1273;139612;-92
2023/08/21 07:58:33;;;;;;;14.80;13.40;;;;;;;23.21;100.00;97182.29;109510;1292;22222;-92
2023/08/21 08:01:00;;;;;;;15.00;13.50;;;;;;;23.29;100.00;97191.59;109091;1285;139081;-92
2023/08/21 08:03:26;;;;;;;15.30;13.80;;;;;;;23.37;100.00;97198.08;109338;1292;22331;-92
2023/08/21 08:05:53;;;;;;;15.80;14.30;;;;;;;23.47;100.00;97195.63;109254;1292;22293;-92
2023/08/21 08:08:19;;;;;;;15.00;13.60;;;;;;;23.55;100.00;97195.25;109160;1292;139012;-91
2023/08/21 08:10:45;;;;;;;14.40;13.10;;;;;;;23.60;100.00;97195.77;109333;1292;22289;-91
2023/08/21 08:13:11;;;;;;;15.90;14.50;;;;;;;23.62;100.00;97202.70;109112;1292;138940;-92
2023/08/21 08:15:37;;;;;;;13.60;12.30;;;;;;;23.65;100.00;97201.63;109291;1292;22867;-92
2023/08/21 08:18:04;;;;;;;15.50;14.10;;;;;;;23.69;100.00;97202.75;109495;1292;22819;-91
2023/08/21 08:20:31;;;;;;;15.90;14.50;;;;;;;23.73;100.00;97203.02;109345;1292;22334;-91
2023/08/21 08:22:57;;;;;;;17.50;15.20;;;;;;;23.79;100.00;97205.38;109408;1285;22195;-91
2023/08/21 08:25:23;;;;;;;18.10;16.20;;;;;;;23.84;100.00;97205.33;109285;1285;138793;-91
2023/08/21 08:27:51;;;;;;;14.60;13.30;;;;;;;23.87;100.00;97209.13;109523;1284;22390;-92
2023/08/21 08:30:18;;;;;;;19.70;17.50;;;;;;;23.89;100.00;97211.42;109421;1289;139247;-92
2023/08/21 08:32:49;;;;;;;19.00;17.30;;;;;;;23.88;100.00;97210.41;109495;1287;22194;-91
2023/08/21 08:35:15;;;;;;;18.10;16.40;;;;;;;23.89;100.00;97215.04;109614;1284;22372;-91
2023/08/21 08:37:41;;;;;;;17.60;15.00;;;;;;;23.90;100.00;97212.40;109455;1285;139734;-92
2023/08/21 08:40:09;;;;;;;18.40;16.70;;;;;;;23.92;100.00;97216.59;109557;1287;22182;-91
2023/08/21 08:42:36;;;;;;;16.90;14.90;;;;;;;23.92;100.00;97218.23;109505;1289;139270;-92
2023/08/21 08:45:03;;;;;;;18.50;16.00;;;;;;;23.94;100.00;97223.52;109457;1289;22188;-91
2023/08/21 08:47:31;;;;;;;17.50;15.80;;;;;;;23.96;100.00;97223.80;109553;1289;22398;-92
2023/08/21 08:49:59;;;;;;;16.60;14.90;;;;;;;24.00;100.00;97224.95;109445;1287;139295;-92
2023/08/21 08:52:26;;;;;;;16.10;14.60;;;;;;;24.03;100.00;97224.98;109692;1284;22198;-91
2023/08/21 08:54:54;;;;;;;16.80;15.10;;;;;;;24.04;100.00;97220.11;109396;1286;139004;-91
2023/08/21 08:57:20;;;;;;;18.80;16.90;;;;;;;24.06;100.00;97219.17;109547;1287;22241;-92
2023/08/21 08:59:46;;;;;;;17.20;15.70;;;;;;;24.08;100.00;97211.77;109487;1290;22524;-91
2023/08/21 09:02:12;;;;;;;17.20;15.40;;;;;;;24.11;100.00;97204.91;109309;1289;139386;-92
2023/08/21 09:04:39;;;;;;;17.40;15.60;;;;;;;24.15;100.00;97201.93;109359;1287;22193;-92
2023/08/21 09:07:09;;;;;;;16.30;14.90;;;;;;;24.19;100.00;97199.64;109228;1291;138916;-91
2023/08/21 09:09:44;;;;;;;14.90;13.40;;;;;;;24.24;100.00;97195.66;109354;1287;22402;-90
2023/08/21 09:12:12;;;;;;;16.70;15.00;;;;;;;24.28;100.00;97194.86;109411;1287;139282;-91
2023/08/21 09:14:42;;;;;;;15.00;13.30;;;;;;;24.31;100.00;97195.02;109451;1285;22258;-91
2023/08/21 09:17:08;;;;;;;15.90;14.40;;;;;;;24.31;100.00;97196.68;109448;1284;22367;-92
2023/08/21 09:19:34;;;;;;;15.80;14.30;;;;;;;24.33;100.00;97196.33;109354;1287;139577;-92
2023/08/21 09:22:27;;;;;;;15.70;14.40;;;;;;;24.37;100.00;97196.62;109410;1291;23094;-91
2023/08/21 09:25:05;;;;;;;16.00;14.60;;;;;;;24.43;100.00;97192.40;109389;1287;138984;-92
2023/08/21 09:27:31;;;;;;;15.10;13.70;;;;;;;24.48;100.00;97190.27;109392;1287;22160;-91
2023/08/21 09:29:57;;;;;;;15.30;13.90;;;;;;;24.54;99.99;97189.63;109398;1291;22531;-91
2023/08/21 09:32:23;;;;;;;15.70;14.40;;;;;;;24.61;100.00;97190.77;109247;1290;138689;-91
2023/08/21 09:34:49;;;;;;;15.70;14.30;;;;;;;24.65;99.43;97188.14;109424;1285;22395;-92
2023/08/21 09:37:17;;;;;;;16.20;14.70;;;;;;;24.66;99.86;97180.77;109243;1291;139609;-92
2023/08/21 09:39:44;;;;;;;16.30;14.90;;;;;;;24.69;99.34;97180.67;109422;1287;22226;-92
2023/08/21 09:42:10;;;;;;;15.30;14.10;;;;;;;24.71;98.42;97175.39;109435;1287;138988;-92
2023/08/21 09:44:41;;;;;;;16.60;15.00;;;;;;;24.74;98.80;97172.77;109445;1287;22210;-92
2023/08/21 09:47:08;;;;;;;15.00;13.60;;;;;;;24.79;97.89;97171.53;109412;1290;22188;-92
2023/08/21 09:49:34;;;;;;;16.60;15.00;;;;;;;24.85;99.15;97169.66;109285;1286;138862;-92
2023/08/21 09:52:00;;;;;;;16.20;14.80;;;;;;;24.89;97.63;97168.52;109395;1287;22323;-92
2023/08/21 09:54:26;;;;;;;15.70;14.30;;;;;;;24.91;95.35;97165.94;109270;1285;139366;-92
2023/08/21 09:56:52;;;;;;;16.10;14.70;;;;;;;24.96;95.47;97166.19;109331;1289;22287;-92
2023/08/21 09:59:19;;;;;;;16.30;14.70;;;;;;;25.00;95.99;97167.14;109597;1291;23118;-92
2023/08/21 10:01:46;;;;;;;15.20;13.90;;;;;;;25.03;96.95;97167.38;109462;1291;139042;-91
2023/08/21 10:04:12;;;;;;;15.90;14.50;;;;;;;25.06;95.83;97167.10;109426;1285;22416;-91
2023/08/21 10:06:39;;;;;;;16.00;14.50;;;;;;;25.10;95.63;97168.20;109497;1284;139154;-91
2023/08/21 10:09:05;;;;;;;15.70;14.30;;;;;;;25.15;94.41;97171.09;109554;1290;22231;-92
2023/08/21 10:11:31;;;;;;;15.40;14.10;;;;;;;25.20;94.32;97166.64;109444;1289;22257;-92
2023/08/21 10:13:57;;;;;;;14.90;13.60;;;;;;;25.25;95.09;97163.30;109441;1287;139096;-92
2023/08/21 10:16:24;;;;;;;13.90;12.50;;;;;;;25.26;94.41;97161.66;109408;1285;22177;-92
2023/08/21 10:18:50;;;;;;;14.70;13.30;;;;;;;25.27;93.86;97160.11;109353;1290;138850;-91
2023/08/21 10:21:18;;;;;;;20.10;14.70;;;;;;;25.29;93.54;97159.87;109382;1290;22343;-91
2023/08/21 10:23:51;;;;;;;14.60;13.20;;;;;;;25.34;93.65;97158.02;109363;1285;22276;-91
2023/08/21 10:26:21;;;;;;;18.40;14.60;;;;;;;25.39;93.46;97160.14;109294;1280;139193;-92
2023/08/21 10:28:55;;;;;;;14.60;13.10;;;;;;;25.44;91.18;97160.96;109598;1285;22181;-91
2023/08/21 10:31:34;;;;;;;13.90;12.50;;;;;;;25.51;91.11;97155.56;109417;1289;138901;-92
2023/08/21 10:34:02;;;;;;;12.80;11.50;;;;;;;25.59;89.02;97158.33;109591;1287;22528;-92
2023/08/21 10:37:05;;;;;;;14.30;12.90;;;;;;;25.67;88.98;97157.90;109257;1291;139645;-92
2023/08/21 10:39:33;;;;;;;14.30;12.50;;;;;;;25.77;89.13;97154.77;109382;1289;23058;-92
2023/08/21 10:42:09;;;;;;;13.20;12.00;;;;;;;25.84;88.34;97150.95;109385;1289;22454;-92
2023/08/21 10:44:38;;;;;;;13.80;12.60;;;;;;;25.90;87.74;97153.55;109452;1284;22378;-92
2023/08/21 10:47:16;;;;;;;14.40;13.10;;;;;;;25.94;88.94;97149.46;109618;1290;22873;-92
2023/08/21 10:49:48;;;;;;;13.50;12.20;;;;;;;25.99;90.18;97151.11;109545;1284;138828;-92
2023/08/21 10:52:15;;;;;;;13.60;12.50;;;;;;;26.03;88.45;97155.23;109577;1284;22170;-92
2023/08/21 10:54:48;;;;;;;13.70;12.50;;;;;;;26.09;89.80;97155.96;109459;1285;138984;-92
2023/08/21 10:57:14;;;;;;;14.30;12.90;;;;;;;26.16;88.78;97158.47;109395;1285;22368;-92
2023/08/21 11:00:04;;;;;;;14.10;12.80;;;;;;;26.25;88.54;97159.95;109537;1290;22210;-93